MMSDMMOX

Guest
Details From MMSD - LOS CABOS INTL
To MMOX - XOXOCOTLAN INTL
Flight Number -
Tags decoded
Created
Modified
Stats Distance 832 nm / 1,540 km
Max Altitude 0 ft / 0 m
Waypoints 9
Social Downloads 0
Likes 0
Share VATSIM

Download

Looking for another format? Having issues loading an existing format? Contact us
Advertisement - Login to hide

Notes

Requested: MMSD BALCE UJ14 TNY UJ12 TLC UJ64 CUA UJ39 OAX MMOX Unmatched points: UJ14

Route

MMSD TNY UJ12 TLC UJ64 CUA UJ39 OAX MMOX

ID Type Via Altitude Latitude Longitude Leg Dist Tot Dist Heading (true) Name
O MMSD APT - 0 ft / 0 m 23.15185˚ -109.72104˚ - 0 nm - LOS CABOS INTL
TNY VOR - 0 ft / 0 m 21.42652˚ -104.83698˚ 290 nm 290 nm 110° / 112° TEPIC VOR-DME
GDL VOR UJ12 (AWY-HI) 0 ft / 0 m 20.52342˚ -103.31161˚ 101 nm 391 nm 122° / 123° GUADALAJARA VOR-DME
VOGAS FIX UJ12 (AWY-HI) 0 ft / 0 m 20.15797˚ -102.07394˚ 73 nm 464 nm 107° / 108° -
MLM VOR UJ12 (AWY-HI) 0 ft / 0 m 19.84378˚ -101.03704˚ 61 nm 526 nm 108° / 108° MORELIA VOR-DME
TLC VOR UJ12 (AWY-HI) 0 ft / 0 m 19.33286˚ -99.56103˚ 88 nm 615 nm 110° / 110° TOLUCA VOR-DME
CUA VOR UJ64 (AWY-HI) 0 ft / 0 m 18.78539˚ -98.90075˚ 49 nm 665 nm 131° / 131° CUAUTLA VOR-DME
OAX VOR UJ39 (AWY-HI) 0 ft / 0 m 16.97225˚ -96.73136˚ 165 nm 830 nm 131° / 132° OAXACA VOR-DME
O MMOX APT - 0 ft / 0 m 16.99870˚ -96.72594˚ 1 nm 831 nm 11° / 11° XOXOCOTLAN INTL

Altitude Profile

Advertisement - Login to hide

Weather


0- 5 10 15 20 25 30 35+ Temperature / ° C

Clouds and Precipitation
Forecast for 2017-12-11 18:00 UTC. Updated 2 hours ago

Ground ~20,000 ft ~40,000 ft Winds

MMSD

Details ICAO MMSD (SJD)
Name LOS CABOS INTL
Region Mexico
Timezone America/Mazatlan (UTC-7.0)
Stats Elevation 374 ft / 114 m (AMSL)
Location 23.151850° -109.721044°
Runways 1
Magnetic Variation 8.327° E

METAR

MMSD 111545Z 29010KT 12SM SCT120 BKN220 22/16 A3014 RMK 8/038

Decode

TAF

Not found

Departure Runways

ID Width Length Bearing (true) Bearing (mag) Surface Threshold Offset Overrun Length
16 148 ft / 45 m 9,857 ft / 3,004 m 173.75° 165.42° Asphalt 0 ft / 0 m 215 ft / 66 m
34 148 ft / 45 m 9,857 ft / 3,004 m 353.75° 345.42° Asphalt 0 ft / 0 m 200 ft / 61 m

MMOX

Details ICAO MMOX (OAX)
Name XOXOCOTLAN INTL
Region Mexico
Timezone America/Mexico_City (UTC-6.0)
Stats Elevation 4,989 ft / 1,521 m (AMSL)
Location 16.998701° -96.725944°
Runways 1
Magnetic Variation 3.787° E

METAR

MMOX 111552Z 03004KT 10SM OVC220 12/01 A3045 RMK 8/007

Decode

TAF

Not found

Destination Runways

ID Width Length Bearing (true) Bearing (mag) Surface Threshold Offset Overrun Length
01 148 ft / 45 m 8,072 ft / 2,460 m 15.62° 11.83° Asphalt 0 ft / 0 m 188 ft / 57 m
19 148 ft / 45 m 8,072 ft / 2,460 m 195.62° 191.83° Asphalt 0 ft / 0 m 188 ft / 57 m

Popular Alternatives